• Join FlightAware (Why Join?)
  • Login
  • US Flag 
Trick or treat! (Boo!!) 
03:47AM EDT


 

Airport Tracker/Info


-or-


 

Live Flight TrackerFlight Track Log ✈ WIG7407 ✈ 21-Aug-2014 ✈ KPBG - KALB

Flight Track Log - Related Links

Times and Time Zones

All times are in EDT time to prevent confusion due to time zone crossing. See the WIG7407 flight status page for this flight to view local times or setup timezone preferences in your user account.

Time Position Orientation Groundspeed Altitude Reporting Facility
EDT Latitude Longitude Course Direction KTS MPH feet Rate Location/Type
07:51PM 44.6461 -73.4697 189° South 70 81 900  Level Boston Center
07:52PM 44.6208 -73.4789 194° South 90 104 1,800 960 Climbing Boston Center
07:53PM 44.5922 -73.4867 191° South 102 117 2,900 960 Climbing Boston Center
07:54PM 44.5667 -73.4867 180° South 96 110 3,900 840 Climbing Boston Center
07:55PM 44.3968 -73.5026 189° South  Level FlightAware Approximate
07:55PM 44.5406 -73.4947 192° South 95 109 4,700  Level Boston Center
07:56PM 44.3549 -73.5119 189° South  Level FlightAware Approximate
07:56PM 44.5125 -73.4969 183° South 97 112 5,600  Level Boston Center
07:57PM 44.4786 -73.5053 190° South 99 114 6,700 960 Climbing Boston Center
07:58PM 44.4481 -73.5103 187° South 101 116 7,600 780 Climbing Boston Center
07:59PM 44.4197 -73.5144 186° South 101 116 8,400 780 Climbing Boston Center
08:00PM 44.3881 -73.5200 187° South 103 119 9,300 720 Climbing Boston Center
08:01PM 44.3578 -73.5261 188° South 108 124 10,000 300 Climbing Boston Center
08:02PM 44.3217 -73.5339 189° South 119 137 10,000  Level Boston Center
08:03PM 44.2925 -73.5350 182° South 110 127 10,000  Level Boston Center
08:04PM 44.2583 -73.5408 187° South 114 131 10,000  Level Boston Center
08:05PM 44.2228 -73.5506 191° South 130 150 10,000  Level Boston Center
08:06PM 44.1825 -73.5575 187° South 132 152 10,000  Level Boston Center
08:07PM 44.1447 -73.5644 188° South 135 155 10,000  Level Boston Center
08:08PM 44.1031 -73.5717 187° South 139 160 10,000  Level Boston Center
08:09PM 44.0656 -73.5783 187° South 138 159 10,000  Level Boston Center
08:10PM 44.0256 -73.5853 187° South 137 158 10,000  Level Boston Center
08:11PM 43.9889 -73.5900 185° South 136 157 10,000  Level Boston Center
08:12PM 43.9483 -73.5978 188° South 136 157 10,000  Level Boston Center
08:13PM 43.9108 -73.6050 188° South 136 157 10,000  Level Boston Center
08:14PM 43.8736 -73.6128 189° South 137 158 10,000  Level Boston Center
08:15PM 43.8331 -73.6192 186° South 137 158 10,000  Level Boston Center
08:16PM 43.7961 -73.6250 187° South 137 158 10,000  Level Boston Center
08:17PM 43.7569 -73.6311 186° South 133 153 10,000  Level Boston Center
08:18PM 43.7211 -73.6383 188° South 133 153 10,000  Level Boston Center
08:19PM 43.6839 -73.6447 187° South 130 150 10,000  Level Boston Center
08:20PM 43.6511 -73.6478 184° South 129 148 10,000  Level Boston Center
08:21PM 43.6203 -73.6519 186° South 126 145 10,000  Level Boston Center
08:21PM 43.6164 -73.6544 205° Southwest 129 148 10,000  Level Boston Center
08:23PM 43.5719 -73.6589 184° South 128 147 10,000  Level Boston Center
08:24PM 43.5383 -73.6672 190° South 128 147 10,100  Climbing Boston Center
08:25PM 43.5036 -73.6747 189° South 128 147 10,000 -120 Descending Boston Center
08:25PM 43.4961 -73.6744 178° South 128 147 10,000  Level Boston Center
08:26PM 43.4689 -73.6803 189° South 128 147 10,000  Level Boston Center
08:26PM 43.4611 -73.6775 165° South 125 144 10,000 60 Level Boston Center
08:27PM 43.4347 -73.6847 191° South 125 144 10,100 60 Climbing Boston Center
08:27PM 43.4278 -73.6839 175° South 124 143 10,100 -120 Level Boston Center
08:28PM 43.3969 -73.6919 191° South 127 146 10,000 -480 Descending Boston Center
08:29PM 43.3583 -73.6978 186° South 128 147 9,300 -780 Descending Boston Center
08:30PM 43.3192 -73.7028 185° South 133 153 8,300 -840 Descending Boston Center
08:31PM 43.2814 -73.7106 189° South 131 151 7,500 -900 Descending Boston Center
08:32PM 43.2467 -73.7169 188° South 131 151 6,600 -960 Descending Boston Center
08:33PM 43.2114 -73.7242 188° South 130 150 5,700 -960 Descending Boston Center
08:34PM 43.1769 -73.7347 193° South 128 147 4,700 -960 Descending Boston Center
08:35PM 43.1458 -73.7444 193° South 119 137 3,800 -840 Descending Boston Center
08:36PM 43.1131 -73.7536 192° South 115 132 3,100 -420 Descending Boston Center
08:37PM 43.0831 -73.7608 190° South 114 131 3,000 -60 Descending Boston Center
08:38PM 43.0525 -73.7711 194° South 113 130 3,000  Level Boston Center
08:39PM 43.0242 -73.7786 191° South 113 130 3,000  Level Boston Center
08:40PM 42.9911 -73.7925 197° South 112 129 3,000  Level Boston Center
08:41PM 42.9642 -73.8022 195° South 109 125 3,100  Climbing Boston Center
08:42PM 42.9333 -73.8064 186° South 109 125 3,100 -180 Level Boston Center
08:43PM 42.9044 -73.8111 187° South 108 124 2,800 -360 Descending Boston Center
08:43PM 42.8997 -73.8117 185° South 106 122 2,700 -420 Descending Boston Center
08:44PM 42.8725 -73.8092 176° South 113 130 2,400 -300 Descending Boston Center
08:44PM 42.8681 -73.8100 188° South 108 124 2,400 -540 Level Boston Center
08:45PM 42.8428 -73.8078 176° South 111 128 1,900 -720 Descending Boston Center
08:45PM 42.8353 -73.8089 186° South 110 127 1,700 -600 Descending Boston Center
08:46PM 42.8125 -73.8092 181° South 106 122 1,300 -540 Descending Boston Center
08:46PM 42.8058 -73.8075 170° South 109 125 1,200 -600 Descending Boston Center
08:47PM 42.7831 -73.8053 176° South 111 128 700 -600 Descending Boston Center
08:47PM 42.7739 -73.8058 183° South 111 128 600 -360 Descending Boston Center
08:48PM 42.7497 -73.8047 178° South 89 102 300 -300 Descending Boston Center
08:51PM 42.7491 -73.8020 190° South  Level Estimated